createdAt,value
2018-07-12T00:01:00.313Z,92208.68
2018-07-12T00:03:32.981Z,92206.29
2018-07-12T00:06:05.507Z,92204.63
2018-07-12T00:08:38.334Z,92201.88
2018-07-12T00:11:10.810Z,92202.55
2018-07-12T00:13:43.430Z,92198.88
2018-07-12T00:16:15.997Z,92199.26
2018-07-12T00:18:48.681Z,92204.30
2018-07-12T00:21:21.271Z,92203.91
2018-07-12T00:23:54.041Z,92205.92
2018-07-12T00:26:26.504Z,92209.70
2018-07-12T00:28:59.123Z,92210.53
2018-07-12T00:31:31.668Z,92213.87
2018-07-12T00:34:04.286Z,92216.53
2018-07-12T00:36:36.844Z,92216.39
2018-07-12T00:39:09.577Z,92207.09
2018-07-12T00:41:42.242Z,92217.61
2018-07-12T00:44:14.852Z,92219.97
2018-07-12T00:46:47.561Z,92214.39
2018-07-12T00:49:20.208Z,92219.41
2018-07-12T00:51:52.767Z,92220.34
2018-07-12T00:54:25.460Z,92222.56
2018-07-12T00:56:58.112Z,92215.16
2018-07-12T00:59:30.721Z,92216.20
2018-07-12T01:02:03.655Z,92215.44
2018-07-12T01:04:36.558Z,92217.00
2018-07-12T01:07:09.105Z,92211.50
2018-07-12T01:09:41.785Z,92207.84
2018-07-12T01:12:14.339Z,92215.48
2018-07-12T01:14:46.949Z,92213.95
2018-07-12T01:17:19.544Z,92208.11
2018-07-12T01:19:52.230Z,92209.77
2018-07-12T01:22:24.846Z,92205.48
2018-07-12T01:24:57.489Z,92207.83
2018-07-12T01:27:30.133Z,92205.07
2018-07-12T01:30:02.753Z,92204.11
2018-07-12T01:32:35.312Z,92202.42
2018-07-12T01:35:07.945Z,92197.61
2018-07-12T01:37:40.635Z,92201.61
2018-07-12T01:40:13.316Z,92201.02
2018-07-12T01:42:46.012Z,92198.31
2018-07-12T01:45:18.603Z,92203.47
2018-07-12T01:47:51.146Z,92202.73
2018-07-12T01:50:23.777Z,92200.61
2018-07-12T01:52:56.449Z,92197.36
2018-07-12T01:55:29.087Z,92204.41
2018-07-12T01:58:01.636Z,92204.89
2018-07-12T02:00:34.439Z,92204.14
2018-07-12T02:03:07.000Z,92198.30
2018-07-12T02:05:39.680Z,92201.86
2018-07-12T02:08:12.200Z,92206.09
2018-07-12T02:10:44.862Z,92204.97
2018-07-12T02:13:17.395Z,92204.45
2018-07-12T02:15:50.057Z,92202.53
2018-07-12T02:18:22.576Z,92202.46
2018-07-12T02:20:55.184Z,92196.11
2018-07-12T02:23:27.764Z,92206.45
2018-07-12T02:26:01.453Z,92202.27
2018-07-12T02:28:33.972Z,92207.34
2018-07-12T02:31:06.673Z,92209.34
2018-07-12T02:33:39.321Z,92211.19
2018-07-12T02:36:11.938Z,92211.02
2018-07-12T02:38:44.442Z,92212.27
2018-07-12T02:41:17.046Z,92218.50
2018-07-12T02:43:49.733Z,92217.08
2018-07-12T02:46:22.425Z,92224.74
2018-07-12T02:48:55.017Z,92226.52
2018-07-12T02:51:27.726Z,92227.14
2018-07-12T02:54:01.654Z,92235.79
2018-07-12T02:56:34.350Z,92226.56
2018-07-12T02:59:06.851Z,92225.23
2018-07-12T03:01:39.554Z,92222.70
2018-07-12T03:04:12.212Z,92215.16
2018-07-12T03:06:44.902Z,92226.87
2018-07-12T03:09:17.395Z,92211.55
2018-07-12T03:11:50.083Z,92220.69
2018-07-12T03:14:22.743Z,92221.14
2018-07-12T03:16:55.300Z,92229.34
2018-07-12T03:19:27.899Z,92234.29
2018-07-12T03:22:00.658Z,92230.22
2018-07-12T03:24:33.318Z,92234.23
2018-07-12T03:27:06.958Z,92236.98
2018-07-12T03:29:39.544Z,92236.09
2018-07-12T03:32:12.161Z,92235.70
2018-07-12T03:34:44.610Z,92232.23
2018-07-12T03:37:17.374Z,92232.12
2018-07-12T03:39:49.905Z,92231.25
2018-07-12T03:42:22.939Z,92231.44
2018-07-12T03:44:55.541Z,92225.06
2018-07-12T03:47:28.150Z,92227.84
2018-07-12T03:50:00.634Z,92230.80
2018-07-12T03:52:33.283Z,92229.30
2018-07-12T03:55:05.986Z,92232.87
2018-07-12T03:57:38.790Z,92229.44
2018-07-12T04:00:11.235Z,92229.13
2018-07-12T04:02:43.942Z,92236.59
2018-07-12T04:05:16.549Z,92232.70
2018-07-12T04:07:49.186Z,92232.73
2018-07-12T04:10:21.735Z,92230.88
2018-07-12T04:12:54.451Z,92241.31
2018-07-12T04:15:27.002Z,92237.59
2018-07-12T04:17:59.696Z,92228.58
2018-07-12T04:20:37.512Z,92235.44
2018-07-12T04:23:10.889Z,92222.82
2018-07-12T04:25:43.561Z,92227.94
2018-07-12T04:28:17.332Z,92223.10
2018-07-12T04:30:49.893Z,92223.66
2018-07-12T04:33:22.516Z,92219.55
2018-07-12T04:35:55.134Z,92218.75
2018-07-12T04:38:27.757Z,92220.20
2018-07-12T04:41:00.277Z,92221.14
2018-07-12T04:43:32.852Z,92218.47
2018-07-12T04:46:05.476Z,92226.11
2018-07-12T04:48:38.065Z,92233.45
2018-07-12T04:51:10.651Z,92230.28
2018-07-12T04:53:43.574Z,92225.45
2018-07-12T04:56:16.094Z,92233.14
2018-07-12T04:58:48.803Z,92235.09
2018-07-12T05:01:21.364Z,92237.88
2018-07-12T05:03:54.011Z,92231.06
2018-07-12T05:06:26.605Z,92231.54
2018-07-12T05:08:59.260Z,92227.61
2018-07-12T05:11:25.773Z,92223.71
2018-07-12T05:13:53.010Z,92231.16
2018-07-12T05:16:20.085Z,92223.80
2018-07-12T05:18:46.610Z,92229.55
2018-07-12T05:21:13.138Z,92231.60
2018-07-12T05:23:39.701Z,92225.41
2018-07-12T05:26:06.221Z,92224.73
2018-07-12T05:28:32.758Z,92225.03
2018-07-12T05:30:59.321Z,92233.44
2018-07-12T05:33:26.049Z,92235.08
2018-07-12T05:35:53.812Z,92237.61
2018-07-12T05:41:28.849Z,92241.93
2018-07-12T05:43:56.750Z,92228.41
2018-07-12T05:46:24.706Z,92225.67
2018-07-12T05:48:52.632Z,92224.36
2018-07-12T05:51:20.508Z,92233.62
2018-07-12T05:53:48.380Z,92235.33
2018-07-12T05:56:16.318Z,92228.09
2018-07-12T05:58:44.202Z,92227.42
2018-07-12T06:01:23.221Z,92230.89
2018-07-12T06:03:51.126Z,92232.69
2018-07-12T06:06:19.013Z,92229.06
2018-07-12T06:08:46.913Z,92225.68
2018-07-12T06:11:14.816Z,92222.27
2018-07-12T06:13:42.709Z,92225.17
2018-07-12T06:16:10.759Z,92220.19
2018-07-12T06:18:38.526Z,92221.84
2018-07-12T06:21:06.418Z,92223.81
2018-07-12T06:23:35.307Z,92228.76
2018-07-12T06:26:03.200Z,92228.47
2018-07-12T06:28:31.099Z,92226.72
2018-07-12T06:30:59.050Z,92229.98
2018-07-12T06:33:26.933Z,92227.73
2018-07-12T06:36:00.978Z,92230.12
2018-07-12T06:38:28.862Z,92225.17
2018-07-12T06:40:56.744Z,92232.02
2018-07-12T06:43:24.875Z,92227.49
2018-07-12T06:45:52.780Z,92222.07
2018-07-12T06:48:20.744Z,92227.84
2018-07-12T06:50:48.658Z,92229.89
2018-07-12T06:53:16.563Z,92229.48
2018-07-12T06:55:44.464Z,92223.75
2018-07-12T06:58:12.411Z,92223.58
2018-07-12T07:00:40.380Z,92219.38
2018-07-12T07:03:08.513Z,92221.31
2018-07-12T07:05:36.616Z,92208.09
2018-07-12T07:08:04.484Z,92216.09
2018-07-12T07:10:32.370Z,92215.69
2018-07-12T07:13:00.302Z,92215.93
2018-07-12T07:15:28.187Z,92220.89
2018-07-12T07:17:56.066Z,92217.63
2018-07-12T07:20:23.975Z,92220.11
2018-07-12T07:22:51.882Z,92218.34
2018-07-12T07:25:19.906Z,92216.64
2018-07-12T07:27:48.177Z,92218.01
2018-07-12T07:30:16.125Z,92214.24
2018-07-12T07:32:44.005Z,92213.97
2018-07-12T07:35:11.931Z,92208.81
2018-07-12T07:37:39.910Z,92210.73
2018-07-12T07:40:07.804Z,92213.92
2018-07-12T07:42:35.726Z,92209.35
2018-07-12T07:45:03.912Z,92206.57
2018-07-12T07:47:31.819Z,92210.06
2018-07-12T07:50:00.401Z,92206.14
2018-07-12T07:52:28.346Z,92205.48
2018-07-12T07:54:56.240Z,92203.63
2018-07-12T07:57:24.242Z,92204.37
2018-07-12T07:59:52.121Z,92200.72
2018-07-12T08:02:20.001Z,92203.05
2018-07-12T08:04:47.925Z,92200.46
2018-07-12T08:07:15.786Z,92205.53
2018-07-12T08:09:43.708Z,92201.23
2018-07-12T08:12:11.842Z,92200.75
2018-07-12T08:14:40.076Z,92203.55
2018-07-12T08:17:07.986Z,92205.89
2018-07-12T08:19:35.893Z,92202.97
2018-07-12T08:22:06.345Z,92201.88
2018-07-12T08:24:39.857Z,92201.61
2018-07-12T08:27:10.827Z,92201.55
2018-07-12T08:29:39.655Z,92196.97
2018-07-12T08:32:07.659Z,92206.30
2018-07-12T08:34:35.589Z,92202.06
2018-07-12T08:37:03.573Z,92198.98
2018-07-12T08:39:31.482Z,92201.94
2018-07-12T08:41:59.368Z,92203.44
2018-07-12T08:44:27.260Z,92195.30
2018-07-12T08:46:55.283Z,92199.97
2018-07-12T08:49:23.165Z,92192.68
2018-07-12T08:51:51.200Z,92186.73
2018-07-12T08:54:19.160Z,92186.78
2018-07-12T08:56:47.180Z,92187.84
2018-07-12T08:59:15.355Z,92184.38
2018-07-12T09:01:43.260Z,92179.05
2018-07-12T09:04:11.134Z,92175.97
2018-07-12T09:06:39.005Z,92177.42
2018-07-12T09:09:07.418Z,92180.69
2018-07-12T09:11:35.320Z,92179.42
2018-07-12T09:14:03.275Z,92176.01
2018-07-12T09:16:31.235Z,92176.74
2018-07-12T09:18:59.191Z,92174.70
2018-07-12T09:21:27.073Z,92179.43
2018-07-12T09:23:55.003Z,92176.69
2018-07-12T09:26:28.954Z,92178.22
2018-07-12T09:29:03.004Z,92172.41
2018-07-12T09:31:36.960Z,92173.55
2018-07-12T09:34:04.954Z,92175.57
2018-07-12T09:36:32.977Z,92178.16
2018-07-12T09:39:01.016Z,92173.66
2018-07-12T09:41:28.954Z,92177.42
2018-07-12T09:43:56.867Z,92171.53
2018-07-12T09:46:24.755Z,92176.69
2018-07-12T09:48:57.980Z,92166.77
2018-07-12T09:51:33.622Z,92170.09
2018-07-12T09:54:09.809Z,92174.08
2018-07-12T09:56:53.195Z,92166.17
2018-07-12T09:59:21.265Z,92162.02
2018-07-12T10:03:58.152Z,92162.91
2018-07-12T10:06:38.386Z,92157.39
2018-07-12T10:09:12.437Z,92158.89
2018-07-12T10:11:45.878Z,92157.45
2018-07-12T10:14:19.390Z,92163.53
2018-07-12T10:16:51.769Z,92151.93
2018-07-12T10:19:19.656Z,92151.34
2018-07-12T10:21:47.540Z,92151.44
2018-07-12T10:24:15.739Z,92143.11
2018-07-12T10:26:43.702Z,92142.41
2018-07-12T10:29:11.649Z,92145.18
2018-07-12T10:31:39.619Z,92145.19
2018-07-12T10:34:07.528Z,92138.22
2018-07-12T10:36:35.407Z,92148.65
2018-07-12T10:39:03.839Z,92138.21
2018-07-12T10:41:31.754Z,92136.17
2018-07-12T10:43:59.749Z,92134.08
2018-07-12T10:46:27.813Z,92134.05
2018-07-12T10:48:55.864Z,92141.00
2018-07-12T10:51:23.815Z,92137.56
2018-07-12T10:53:51.949Z,92141.73
2018-07-12T10:56:19.963Z,92129.92
2018-07-12T10:58:47.901Z,92136.13
2018-07-12T11:01:15.997Z,92131.31
2018-07-12T11:03:43.977Z,92129.89
2018-07-12T11:06:11.929Z,92134.63
2018-07-12T11:08:39.956Z,92130.40
2018-07-12T11:11:07.909Z,92133.24
2018-07-12T11:13:47.370Z,92128.33
2018-07-12T11:16:15.325Z,92130.39
2018-07-12T11:18:43.901Z,92133.07
2018-07-12T11:21:12.213Z,92128.38
2018-07-12T11:23:40.465Z,92123.34
2018-07-12T11:26:08.528Z,92122.21
2018-07-12T11:28:36.453Z,92118.05
2018-07-12T11:31:04.415Z,92119.41
2018-07-12T11:33:36.436Z,92116.73
2018-07-12T11:38:58.730Z,92114.49
2018-07-12T11:41:28.487Z,92112.14
2018-07-12T11:43:56.385Z,92117.70
2018-07-12T11:46:24.356Z,92110.47
2018-07-12T11:48:52.253Z,92111.14
2018-07-12T11:51:20.140Z,92108.34
2018-07-12T11:53:48.066Z,92109.05
2018-07-12T11:56:15.945Z,92111.70
2018-07-12T11:58:43.924Z,92108.08
2018-07-12T12:01:11.896Z,92102.41
2018-07-12T12:03:39.805Z,92107.91
2018-07-12T12:06:07.701Z,92102.34
2018-07-12T12:08:35.635Z,92102.34
2018-07-12T12:11:03.541Z,92095.59
2018-07-12T12:13:31.430Z,92099.39
2018-07-12T12:15:59.340Z,92091.69
2018-07-12T12:18:27.206Z,92086.55
2018-07-12T12:20:55.093Z,92093.05
2018-07-12T12:23:23.205Z,92093.62
2018-07-12T12:25:51.091Z,92095.41
2018-07-12T12:28:18.989Z,92086.52
2018-07-12T12:30:46.925Z,92085.79
2018-07-12T12:33:14.806Z,92081.55
2018-07-12T12:35:42.705Z,92085.14
2018-07-12T12:38:10.665Z,92084.45
2018-07-12T12:40:38.546Z,92082.92
2018-07-12T12:43:06.457Z,92076.86
2018-07-12T12:45:34.795Z,92077.72
2018-07-12T12:48:02.685Z,92068.63
2018-07-12T12:50:30.556Z,92076.38
2018-07-12T12:52:58.460Z,92070.88
2018-07-12T12:55:26.384Z,92072.03
2018-07-12T12:57:54.365Z,92068.31
2018-07-12T13:00:22.477Z,92061.66
2018-07-12T13:02:50.359Z,92072.69
2018-07-12T13:05:18.247Z,92069.80
2018-07-12T13:07:46.996Z,92069.32
2018-07-12T13:10:14.937Z,92071.20
2018-07-12T13:12:42.814Z,92069.06
2018-07-12T13:15:10.749Z,92063.84
2018-07-12T13:17:38.737Z,92068.42
2018-07-12T13:20:06.722Z,92064.84
2018-07-12T13:22:34.670Z,92064.23
2018-07-12T13:25:02.709Z,92064.83
2018-07-12T13:27:30.643Z,92056.63
2018-07-12T13:29:58.644Z,92059.27
2018-07-12T13:32:26.557Z,92062.03
2018-07-12T13:34:54.454Z,92057.88
2018-07-12T13:37:22.386Z,92056.55
2018-07-12T13:39:50.288Z,92052.21
2018-07-12T13:42:18.189Z,92053.52
2018-07-12T13:44:46.098Z,92051.97
2018-07-12T13:47:13.997Z,92049.67
2018-07-12T13:49:41.895Z,92046.63
2018-07-12T13:52:09.916Z,92050.70
2018-07-12T13:54:38.336Z,92050.56
2018-07-12T13:57:06.221Z,92042.76
2018-07-12T13:59:34.190Z,92046.84
2018-07-12T14:02:02.230Z,92046.15
2018-07-12T14:04:30.133Z,92047.55
2018-07-12T14:06:58.061Z,92046.56
2018-07-12T14:09:25.938Z,92055.83
2018-07-12T14:11:53.848Z,92048.14
2018-07-12T14:14:21.812Z,92044.01
2018-07-12T14:16:50.153Z,92048.64
2018-07-12T14:19:18.055Z,92049.25
2018-07-12T14:21:45.995Z,92046.01
2018-07-12T14:24:13.913Z,92044.40
2018-07-12T14:26:41.813Z,92049.33
2018-07-12T14:29:09.756Z,92058.69
2018-07-12T14:31:37.650Z,92049.76
2018-07-12T14:34:05.656Z,92052.33
2018-07-12T14:36:33.993Z,92045.74
2018-07-12T14:39:01.936Z,92042.25
2018-07-12T14:41:29.979Z,92047.30
2018-07-12T14:43:57.952Z,92044.01
2018-07-12T14:46:31.905Z,92038.53
2018-07-12T14:48:59.884Z,92035.36
2018-07-12T14:51:27.807Z,92024.53
2018-07-12T14:53:55.700Z,92026.80
2018-07-12T14:56:23.669Z,92030.60
2018-07-12T14:58:51.582Z,92034.44
2018-07-12T15:01:24.672Z,92031.46
2018-07-12T15:03:53.245Z,92037.44
2018-07-12T15:06:21.241Z,92039.61
2018-07-12T15:08:49.234Z,92036.55
2018-07-12T15:11:17.125Z,92039.50
2018-07-12T15:13:45.066Z,92038.73
2018-07-12T15:16:13.063Z,92040.36
2018-07-12T15:18:40.945Z,92043.13
2018-07-12T15:21:08.857Z,92044.37
2018-07-12T15:23:36.824Z,92035.77
2018-07-12T15:26:04.776Z,92036.89
2018-07-12T15:28:33.000Z,92039.00
2018-07-12T15:31:00.916Z,92032.09
2018-07-12T15:33:28.833Z,92038.89
2018-07-12T15:35:56.840Z,92040.20
2018-07-12T15:38:24.932Z,92038.72
2018-07-12T15:40:52.829Z,92047.22
2018-07-12T15:43:20.747Z,92055.61
2018-07-12T15:45:48.994Z,92055.66
2018-07-12T15:48:16.885Z,92054.09
2018-07-12T15:50:45.743Z,92047.73
2018-07-12T15:53:13.669Z,92053.77
2018-07-12T15:55:41.558Z,92055.75
2018-07-12T15:58:09.595Z,92057.88
2018-07-12T16:00:37.993Z,92059.17
2018-07-12T16:03:05.890Z,92059.08
2018-07-12T16:05:33.881Z,92065.20
2018-07-12T16:08:01.829Z,92058.83
2018-07-12T16:10:29.716Z,92066.93
2018-07-12T16:12:57.628Z,92075.08
2018-07-12T16:15:25.642Z,92067.22
2018-07-12T16:17:53.571Z,92068.38
2018-07-12T16:20:21.449Z,92067.44
2018-07-12T16:22:49.579Z,92070.23
2018-07-12T16:25:17.478Z,92068.79
2018-07-12T16:27:45.385Z,92075.53
2018-07-12T16:30:13.331Z,92076.87
2018-07-12T16:32:41.204Z,92082.13
2018-07-12T16:35:10.082Z,92083.89
2018-07-12T16:37:38.012Z,92083.13
2018-07-12T16:40:05.922Z,92094.14
2018-07-12T16:42:33.804Z,92091.86
2018-07-12T16:45:01.805Z,92100.92
2018-07-12T16:47:30.224Z,92099.69
2018-07-12T16:50:01.125Z,92087.59
2018-07-12T16:52:29.048Z,92095.89
2018-07-12T16:54:56.938Z,92097.36
2018-07-12T16:57:24.897Z,92100.34
2018-07-12T16:59:52.839Z,92103.33
2018-07-12T17:02:20.729Z,92101.97
2018-07-12T17:04:48.653Z,92110.05
2018-07-12T17:07:16.775Z,92115.59
2018-07-12T17:09:44.657Z,92114.31
2018-07-12T17:12:12.575Z,92120.25
2018-07-12T17:14:40.643Z,92124.56
2018-07-12T17:17:08.519Z,92117.65
2018-07-12T17:19:36.476Z,92119.69
2018-07-12T17:22:04.386Z,92121.67
2018-07-12T17:24:32.260Z,92123.61
2018-07-12T17:27:00.138Z,92126.22
2018-07-12T17:29:28.245Z,92123.02
2018-07-12T17:31:56.127Z,92133.41
2018-07-12T17:34:24.022Z,92128.08
2018-07-12T17:36:52.371Z,92133.28
2018-07-12T17:39:20.283Z,92128.09
2018-07-12T17:41:48.557Z,92133.48
2018-07-12T17:44:16.667Z,92138.13
2018-07-12T17:46:44.536Z,92133.16
2018-07-12T17:49:13.676Z,92137.06
2018-07-12T17:51:42.086Z,92139.64
2018-07-12T17:54:09.970Z,92135.38
2018-07-12T17:56:37.838Z,92137.82
2018-07-12T17:59:05.891Z,92137.43
2018-07-12T18:01:33.928Z,92142.72
2018-07-12T18:04:02.110Z,92143.80
2018-07-12T18:06:30.574Z,92140.86
2018-07-12T18:08:58.568Z,92151.50
2018-07-12T18:11:26.654Z,92153.30
2018-07-12T18:13:55.193Z,92149.97
2018-07-12T18:16:23.074Z,92147.88
2018-07-12T18:18:50.942Z,92154.37
2018-07-12T18:21:19.728Z,92161.21
2018-07-12T18:23:47.616Z,92170.07
2018-07-12T18:26:15.807Z,92174.40
2018-07-12T18:28:43.730Z,92175.10
2018-07-12T18:31:11.605Z,92178.67
2018-07-12T18:33:39.480Z,92183.59
2018-07-12T18:36:07.465Z,92182.16
2018-07-12T18:38:35.342Z,92188.70
2018-07-12T18:41:03.323Z,92200.98
2018-07-12T18:43:31.282Z,92195.46
2018-07-12T18:45:59.353Z,92195.17
2018-07-12T18:48:27.256Z,92196.30
2018-07-12T18:50:55.433Z,92195.34
2018-07-12T18:53:23.322Z,92195.87
2018-07-12T18:55:51.272Z,92199.11
2018-07-12T18:58:19.243Z,92198.78
2018-07-12T19:00:47.181Z,92200.92
2018-07-12T19:03:15.505Z,92199.22
2018-07-12T19:05:43.449Z,92204.81
2018-07-12T19:08:11.332Z,92204.72
2018-07-12T19:10:39.293Z,92207.91
2018-07-12T19:13:07.207Z,92217.73
2018-07-12T19:15:35.098Z,92220.64
2018-07-12T19:18:02.964Z,92233.02
2018-07-12T19:20:30.931Z,92232.05
2018-07-12T19:22:58.920Z,92232.39
2018-07-12T19:25:27.518Z,92242.44
2018-07-12T19:27:55.499Z,92244.47
2018-07-12T19:30:24.020Z,92247.55
2018-07-12T19:32:51.927Z,92245.67
2018-07-12T19:35:19.961Z,92249.39
2018-07-12T19:37:47.854Z,92251.61
2018-07-12T19:40:15.776Z,92249.19
2018-07-12T19:42:43.962Z,92255.98
2018-07-12T19:45:11.934Z,92252.77
2018-07-12T19:47:39.820Z,92257.97
2018-07-12T19:50:07.779Z,92253.39
2018-07-12T19:52:35.648Z,92253.47
2018-07-12T19:55:03.999Z,92257.11
2018-07-12T19:57:33.033Z,92259.95
2018-07-12T20:00:07.502Z,92262.52
2018-07-12T20:02:41.622Z,92251.59
2018-07-12T20:05:15.522Z,92253.70
2018-07-12T20:07:49.464Z,92262.47
2018-07-12T20:10:23.600Z,92259.41
2018-07-12T20:12:59.309Z,92268.88
2018-07-12T20:15:33.508Z,92265.48
2018-07-12T20:18:07.493Z,92268.73
2018-07-12T20:20:41.524Z,92279.64
2018-07-12T20:23:15.802Z,92281.80
2018-07-12T20:25:49.702Z,92280.22
2018-07-12T20:28:23.953Z,92283.69
2018-07-12T20:30:58.862Z,92282.54
2018-07-12T20:33:33.084Z,92291.27
2018-07-12T20:36:09.195Z,92289.59
2018-07-12T20:38:44.102Z,92292.36
2018-07-12T20:41:18.651Z,92295.70
2018-07-12T20:43:53.483Z,92289.02
2018-07-12T20:46:28.090Z,92292.84
2018-07-12T20:49:04.519Z,92290.69
2018-07-12T20:51:39.214Z,92289.23
2018-07-12T20:54:14.172Z,92285.86
2018-07-12T20:56:48.944Z,92290.08
2018-07-12T20:59:24.414Z,92295.89
2018-07-12T21:01:59.117Z,92288.19
2018-07-12T21:04:33.570Z,92288.72
2018-07-12T21:07:07.459Z,92288.06
2018-07-12T21:09:41.402Z,92287.70
2018-07-12T21:12:15.399Z,92290.50
2018-07-12T21:14:50.291Z,92282.30
2018-07-12T21:17:24.441Z,92280.36
2018-07-12T21:19:58.981Z,92283.69
2018-07-12T21:22:33.065Z,92277.77
2018-07-12T21:25:07.039Z,92276.52
2018-07-12T21:27:40.946Z,92270.83
2018-07-12T21:30:14.931Z,92275.03
2018-07-12T21:32:48.877Z,92275.09
2018-07-12T21:35:23.086Z,92279.65
2018-07-12T21:37:57.026Z,92276.42
2018-07-12T21:40:30.976Z,92274.50
2018-07-12T21:43:05.086Z,92274.09
2018-07-12T21:45:39.118Z,92271.92
2018-07-12T21:48:13.145Z,92273.98
2018-07-12T21:50:47.239Z,92272.48
2018-07-12T21:53:21.137Z,92281.03
2018-07-12T21:55:55.194Z,92281.84
2018-07-12T21:58:29.166Z,92282.09
2018-07-12T22:01:03.187Z,92277.52
2018-07-12T22:03:37.280Z,92282.03
2018-07-12T22:06:11.882Z,92285.28
2018-07-12T22:08:46.037Z,92282.07
2018-07-12T22:11:19.905Z,92285.56
2018-07-12T22:13:53.984Z,92277.36
2018-07-12T22:16:28.757Z,92276.66
2018-07-12T22:19:02.653Z,92281.52
2018-07-12T22:21:36.683Z,92280.46
2018-07-12T22:24:10.488Z,92279.59
2018-07-12T22:26:44.401Z,92269.88
2018-07-12T22:29:18.377Z,92273.53
2018-07-12T22:31:52.364Z,92271.80
2018-07-12T22:34:26.274Z,92270.48
2018-07-12T22:37:00.407Z,92270.31
2018-07-12T22:39:34.306Z,92276.64
2018-07-12T22:42:08.368Z,92275.05
2018-07-12T22:44:42.283Z,92270.86
2018-07-12T22:47:16.288Z,92266.23
2018-07-12T22:49:50.175Z,92271.62
2018-07-12T22:52:24.158Z,92272.44
2018-07-12T22:54:58.071Z,92277.33
2018-07-12T22:57:32.046Z,92274.28
2018-07-12T23:00:06.580Z,92278.80
2018-07-12T23:02:40.474Z,92279.84
2018-07-12T23:05:14.453Z,92284.03
2018-07-12T23:07:48.642Z,92273.39
2018-07-12T23:10:22.665Z,92268.66
2018-07-12T23:12:56.661Z,92270.02
2018-07-12T23:15:30.635Z,92271.13
2018-07-12T23:18:04.852Z,92268.17
2018-07-12T23:20:38.916Z,92262.31
2018-07-12T23:23:13.442Z,92264.80
2018-07-12T23:25:47.356Z,92271.20
2018-07-12T23:28:21.286Z,92267.31
2018-07-12T23:30:55.385Z,92272.41
2018-07-12T23:33:29.535Z,92269.16
2018-07-12T23:36:03.358Z,92269.75
2018-07-12T23:38:37.519Z,92269.30
2018-07-12T23:41:11.452Z,92273.93
2018-07-12T23:43:45.439Z,92273.81
2018-07-12T23:46:19.312Z,92273.28
2018-07-12T23:48:53.233Z,92273.37
2018-07-12T23:51:27.295Z,92277.50
2018-07-12T23:54:01.937Z,92280.33
2018-07-12T23:56:35.988Z,92273.89
2018-07-12T23:59:10.087Z,92276.27
